sensor_id;sensor_type;location;lat;lon;timestamp;P1;durP1;ratioP1;P2;durP2;ratioP2
52294;SDS011;38243;53.212;6.574;2023-04-03T00:01:15;0.60;;;0.40;;
52294;SDS011;38243;53.212;6.574;2023-04-03T00:03:42;0.73;;;0.40;;
52294;SDS011;38243;53.212;6.574;2023-04-03T00:06:08;0.60;;;0.38;;
52294;SDS011;38243;53.212;6.574;2023-04-03T00:08:36;0.85;;;0.40;;
52294;SDS011;38243;53.212;6.574;2023-04-03T00:11:02;0.50;;;0.30;;
52294;SDS011;38243;53.212;6.574;2023-04-03T00:13:28;0.30;;;0.30;;
52294;SDS011;38243;53.212;6.574;2023-04-03T00:15:54;0.47;;;0.30;;
52294;SDS011;38243;53.212;6.574;2023-04-03T00:18:20;0.70;;;0.50;;
52294;SDS011;38243;53.212;6.574;2023-04-03T00:20:46;0.43;;;0.30;;
52294;SDS011;38243;53.212;6.574;2023-04-03T00:23:12;1.48;;;0.68;;
52294;SDS011;38243;53.212;6.574;2023-04-03T00:25:38;1.03;;;0.33;;
52294;SDS011;38243;53.212;6.574;2023-04-03T00:28:04;1.10;;;0.60;;
52294;SDS011;38243;53.212;6.574;2023-04-03T00:30:30;0.82;;;0.50;;
52294;SDS011;38243;53.212;6.574;2023-04-03T00:32:56;1.00;;;0.32;;
52294;SDS011;38243;53.212;6.574;2023-04-03T00:35:23;0.70;;;0.30;;
52294;SDS011;38243;53.212;6.574;2023-04-03T00:37:52;0.77;;;0.30;;
52294;SDS011;38243;53.212;6.574;2023-04-03T00:40:19;0.60;;;0.40;;
52294;SDS011;38243;53.212;6.574;2023-04-03T00:42:48;0.88;;;0.40;;
52294;SDS011;38243;53.212;6.574;2023-04-03T00:45:33;1.05;;;0.40;;
52294;SDS011;38243;53.212;6.574;2023-04-03T00:48:05;0.70;;;0.40;;
52294;SDS011;38243;53.212;6.574;2023-04-03T00:50:34;1.13;;;0.50;;
52294;SDS011;38243;53.212;6.574;2023-04-03T00:53:03;0.57;;;0.40;;
52294;SDS011;38243;53.212;6.574;2023-04-03T00:55:31;1.13;;;0.38;;
52294;SDS011;38243;53.212;6.574;2023-04-03T00:57:59;0.90;;;0.40;;
52294;SDS011;38243;53.212;6.574;2023-04-03T01:00:26;1.98;;;0.70;;
52294;SDS011;38243;53.212;6.574;2023-04-03T01:02:53;0.57;;;0.50;;
52294;SDS011;38243;53.212;6.574;2023-04-03T01:05:19;0.90;;;0.40;;
52294;SDS011;38243;53.212;6.574;2023-04-03T01:07:46;1.58;;;0.50;;
52294;SDS011;38243;53.212;6.574;2023-04-03T01:10:14;1.55;;;0.52;;
52294;SDS011;38243;53.212;6.574;2023-04-03T01:12:44;1.27;;;0.40;;
52294;SDS011;38243;53.212;6.574;2023-04-03T01:17:46;0.60;;;0.30;;
52294;SDS011;38243;53.212;6.574;2023-04-03T01:25:39;1.05;;;0.40;;
52294;SDS011;38243;53.212;6.574;2023-04-03T01:28:07;1.10;;;0.50;;
52294;SDS011;38243;53.212;6.574;2023-04-03T01:30:48;0.90;;;0.40;;
52294;SDS011;38243;53.212;6.574;2023-04-03T01:33:24;1.30;;;0.40;;
52294;SDS011;38243;53.212;6.574;2023-04-03T01:35:50;1.20;;;0.50;;
52294;SDS011;38243;53.212;6.574;2023-04-03T01:38:16;2.15;;;0.40;;
52294;SDS011;38243;53.212;6.574;2023-04-03T01:40:41;1.30;;;0.50;;
52294;SDS011;38243;53.212;6.574;2023-04-03T01:43:07;1.25;;;0.50;;
52294;SDS011;38243;53.212;6.574;2023-04-03T01:45:33;1.38;;;0.40;;
52294;SDS011;38243;53.212;6.574;2023-04-03T01:47:59;0.95;;;0.30;;
52294;SDS011;38243;53.212;6.574;2023-04-03T01:50:25;0.50;;;0.40;;
52294;SDS011;38243;53.212;6.574;2023-04-03T01:52:50;0.75;;;0.40;;
52294;SDS011;38243;53.212;6.574;2023-04-03T01:55:16;1.10;;;0.50;;
52294;SDS011;38243;53.212;6.574;2023-04-03T01:57:42;1.65;;;0.60;;
52294;SDS011;38243;53.212;6.574;2023-04-03T02:00:08;1.45;;;0.60;;
52294;SDS011;38243;53.212;6.574;2023-04-03T02:02:34;1.85;;;0.68;;
52294;SDS011;38243;53.212;6.574;2023-04-03T02:05:00;2.60;;;0.50;;
52294;SDS011;38243;53.212;6.574;2023-04-03T02:07:26;1.40;;;0.47;;
52294;SDS011;38243;53.212;6.574;2023-04-03T02:09:52;1.37;;;0.40;;
52294;SDS011;38243;53.212;6.574;2023-04-03T02:12:17;1.60;;;0.60;;
52294;SDS011;38243;53.212;6.574;2023-04-03T02:14:43;1.25;;;0.40;;
52294;SDS011;38243;53.212;6.574;2023-04-03T02:17:09;2.10;;;0.47;;
52294;SDS011;38243;53.212;6.574;2023-04-03T02:19:35;0.90;;;0.50;;
52294;SDS011;38243;53.212;6.574;2023-04-03T02:22:01;1.00;;;0.40;;
52294;SDS011;38243;53.212;6.574;2023-04-03T02:24:28;1.27;;;0.60;;
52294;SDS011;38243;53.212;6.574;2023-04-03T02:26:53;1.90;;;0.50;;
52294;SDS011;38243;53.212;6.574;2023-04-03T02:29:19;1.77;;;0.40;;
52294;SDS011;38243;53.212;6.574;2023-04-03T02:31:45;1.33;;;0.50;;
52294;SDS011;38243;53.212;6.574;2023-04-03T02:34:11;0.77;;;0.50;;
52294;SDS011;38243;53.212;6.574;2023-04-03T02:36:37;0.68;;;0.30;;
52294;SDS011;38243;53.212;6.574;2023-04-03T02:39:02;1.75;;;0.50;;
52294;SDS011;38243;53.212;6.574;2023-04-03T02:41:28;1.33;;;0.50;;
52294;SDS011;38243;53.212;6.574;2023-04-03T02:44:00;1.42;;;0.65;;
52294;SDS011;38243;53.212;6.574;2023-04-03T02:46:27;1.23;;;0.52;;
52294;SDS011;38243;53.212;6.574;2023-04-03T02:48:53;1.33;;;0.60;;
52294;SDS011;38243;53.212;6.574;2023-04-03T02:51:19;1.27;;;0.50;;
52294;SDS011;38243;53.212;6.574;2023-04-03T02:53:44;1.00;;;0.40;;
52294;SDS011;38243;53.212;6.574;2023-04-03T02:56:10;1.40;;;0.50;;
52294;SDS011;38243;53.212;6.574;2023-04-03T02:58:36;1.47;;;0.70;;
52294;SDS011;38243;53.212;6.574;2023-04-03T03:01:02;1.13;;;0.60;;
52294;SDS011;38243;53.212;6.574;2023-04-03T03:03:27;0.82;;;0.40;;
52294;SDS011;38243;53.212;6.574;2023-04-03T03:06:07;0.50;;;0.40;;
52294;SDS011;38243;53.212;6.574;2023-04-03T03:08:35;1.25;;;0.50;;
52294;SDS011;38243;53.212;6.574;2023-04-03T03:11:01;1.60;;;0.50;;
52294;SDS011;38243;53.212;6.574;2023-04-03T03:13:28;1.00;;;0.50;;
52294;SDS011;38243;53.212;6.574;2023-04-03T03:15:53;2.15;;;0.50;;
52294;SDS011;38243;53.212;6.574;2023-04-03T03:18:19;1.50;;;0.50;;
52294;SDS011;38243;53.212;6.574;2023-04-03T03:20:45;1.37;;;0.60;;
52294;SDS011;38243;53.212;6.574;2023-04-03T03:23:11;1.57;;;0.57;;
52294;SDS011;38243;53.212;6.574;2023-04-03T03:25:40;0.88;;;0.40;;
52294;SDS011;38243;53.212;6.574;2023-04-03T03:28:06;1.00;;;0.50;;
52294;SDS011;38243;53.212;6.574;2023-04-03T03:30:32;1.90;;;0.60;;
52294;SDS011;38243;53.212;6.574;2023-04-03T03:32:59;1.42;;;0.60;;
52294;SDS011;38243;53.212;6.574;2023-04-03T03:35:25;1.27;;;0.60;;
52294;SDS011;38243;53.212;6.574;2023-04-03T03:37:50;1.57;;;0.63;;
52294;SDS011;38243;53.212;6.574;2023-04-03T03:40:16;1.20;;;0.50;;
52294;SDS011;38243;53.212;6.574;2023-04-03T03:42:42;1.17;;;0.50;;
52294;SDS011;38243;53.212;6.574;2023-04-03T03:45:08;1.25;;;0.50;;
52294;SDS011;38243;53.212;6.574;2023-04-03T03:47:34;0.70;;;0.40;;
52294;SDS011;38243;53.212;6.574;2023-04-03T03:50:00;1.43;;;0.60;;
52294;SDS011;38243;53.212;6.574;2023-04-03T03:52:26;1.10;;;0.60;;
52294;SDS011;38243;53.212;6.574;2023-04-03T03:54:52;1.52;;;0.47;;
52294;SDS011;38243;53.212;6.574;2023-04-03T03:57:18;1.17;;;0.57;;
52294;SDS011;38243;53.212;6.574;2023-04-03T03:59:43;1.07;;;0.43;;
52294;SDS011;38243;53.212;6.574;2023-04-03T04:02:10;1.00;;;0.50;;
52294;SDS011;38243;53.212;6.574;2023-04-03T04:04:36;1.23;;;0.60;;
52294;SDS011;38243;53.212;6.574;2023-04-03T04:07:02;1.80;;;0.50;;
52294;SDS011;38243;53.212;6.574;2023-04-03T04:09:28;2.17;;;0.60;;
52294;SDS011;38243;53.212;6.574;2023-04-03T04:11:54;2.00;;;0.57;;
52294;SDS011;38243;53.212;6.574;2023-04-03T04:14:20;1.10;;;0.50;;
52294;SDS011;38243;53.212;6.574;2023-04-03T04:16:46;2.13;;;0.57;;
52294;SDS011;38243;53.212;6.574;2023-04-03T04:19:12;1.35;;;0.43;;
52294;SDS011;38243;53.212;6.574;2023-04-03T04:21:39;1.10;;;0.43;;
52294;SDS011;38243;53.212;6.574;2023-04-03T04:24:05;1.15;;;0.40;;
52294;SDS011;38243;53.212;6.574;2023-04-03T04:26:31;2.40;;;0.50;;
52294;SDS011;38243;53.212;6.574;2023-04-03T04:28:56;1.58;;;0.65;;
52294;SDS011;38243;53.212;6.574;2023-04-03T04:31:22;2.40;;;0.60;;
52294;SDS011;38243;53.212;6.574;2023-04-03T04:33:48;2.55;;;0.60;;
52294;SDS011;38243;53.212;6.574;2023-04-03T04:36:13;1.00;;;0.60;;
52294;SDS011;38243;53.212;6.574;2023-04-03T04:38:40;1.10;;;0.60;;
52294;SDS011;38243;53.212;6.574;2023-04-03T04:41:06;1.95;;;0.70;;
52294;SDS011;38243;53.212;6.574;2023-04-03T04:43:32;1.50;;;0.50;;
52294;SDS011;38243;53.212;6.574;2023-04-03T04:48:27;0.98;;;0.60;;
52294;SDS011;38243;53.212;6.574;2023-04-03T04:50:53;0.70;;;0.40;;
52294;SDS011;38243;53.212;6.574;2023-04-03T04:53:19;2.37;;;0.80;;
52294;SDS011;38243;53.212;6.574;2023-04-03T04:55:45;1.60;;;0.57;;
52294;SDS011;38243;53.212;6.574;2023-04-03T04:58:10;1.50;;;0.53;;
52294;SDS011;38243;53.212;6.574;2023-04-03T05:00:36;1.13;;;0.63;;
52294;SDS011;38243;53.212;6.574;2023-04-03T05:03:02;1.80;;;0.60;;
52294;SDS011;38243;53.212;6.574;2023-04-03T05:05:27;1.10;;;0.60;;
52294;SDS011;38243;53.212;6.574;2023-04-03T05:07:53;1.52;;;0.60;;
52294;SDS011;38243;53.212;6.574;2023-04-03T05:10:19;1.55;;;0.60;;
52294;SDS011;38243;53.212;6.574;2023-04-03T05:12:45;1.52;;;0.60;;
52294;SDS011;38243;53.212;6.574;2023-04-03T05:15:11;1.97;;;0.70;;
52294;SDS011;38243;53.212;6.574;2023-04-03T05:17:37;0.82;;;0.60;;
52294;SDS011;38243;53.212;6.574;2023-04-03T05:20:03;3.30;;;0.70;;
52294;SDS011;38243;53.212;6.574;2023-04-03T05:22:30;1.00;;;0.70;;
52294;SDS011;38243;53.212;6.574;2023-04-03T05:24:56;1.87;;;0.60;;
52294;SDS011;38243;53.212;6.574;2023-04-03T05:27:21;2.55;;;0.70;;
52294;SDS011;38243;53.212;6.574;2023-04-03T05:29:49;1.02;;;0.50;;
52294;SDS011;38243;53.212;6.574;2023-04-03T05:32:15;1.65;;;0.70;;
52294;SDS011;38243;53.212;6.574;2023-04-03T05:34:41;1.38;;;0.60;;
52294;SDS011;38243;53.212;6.574;2023-04-03T05:37:07;1.60;;;0.50;;
52294;SDS011;38243;53.212;6.574;2023-04-03T05:39:33;1.73;;;0.70;;
52294;SDS011;38243;53.212;6.574;2023-04-03T05:41:59;2.10;;;0.80;;
52294;SDS011;38243;53.212;6.574;2023-04-03T05:44:24;2.20;;;0.60;;
52294;SDS011;38243;53.212;6.574;2023-04-03T05:46:50;1.70;;;0.70;;
52294;SDS011;38243;53.212;6.574;2023-04-03T05:49:16;2.35;;;1.08;;
52294;SDS011;38243;53.212;6.574;2023-04-03T05:51:42;2.30;;;0.73;;
52294;SDS011;38243;53.212;6.574;2023-04-03T05:54:12;1.98;;;0.70;;
52294;SDS011;38243;53.212;6.574;2023-04-03T05:56:39;1.40;;;0.70;;
52294;SDS011;38243;53.212;6.574;2023-04-03T05:59:04;1.00;;;0.55;;
52294;SDS011;38243;53.212;6.574;2023-04-03T06:01:30;2.53;;;0.80;;
52294;SDS011;38243;53.212;6.574;2023-04-03T06:03:56;1.63;;;0.73;;
52294;SDS011;38243;53.212;6.574;2023-04-03T06:06:23;2.03;;;0.70;;
52294;SDS011;38243;53.212;6.574;2023-04-03T06:08:49;2.65;;;0.90;;
52294;SDS011;38243;53.212;6.574;2023-04-03T06:11:15;3.78;;;0.70;;
52294;SDS011;38243;53.212;6.574;2023-04-03T06:13:41;2.22;;;1.02;;
52294;SDS011;38243;53.212;6.574;2023-04-03T06:16:08;2.95;;;1.05;;
52294;SDS011;38243;53.212;6.574;2023-04-03T06:18:40;1.98;;;0.77;;
52294;SDS011;38243;53.212;6.574;2023-04-03T06:21:06;1.13;;;0.80;;
52294;SDS011;38243;53.212;6.574;2023-04-03T06:23:33;1.55;;;0.70;;
52294;SDS011;38243;53.212;6.574;2023-04-03T06:25:58;2.78;;;0.85;;
52294;SDS011;38243;53.212;6.574;2023-04-03T06:28:25;2.00;;;0.70;;
52294;SDS011;38243;53.212;6.574;2023-04-03T06:30:51;2.47;;;0.75;;
52294;SDS011;38243;53.212;6.574;2023-04-03T06:33:16;1.83;;;0.80;;
52294;SDS011;38243;53.212;6.574;2023-04-03T06:35:42;2.20;;;0.77;;
52294;SDS011;38243;53.212;6.574;2023-04-03T06:38:08;2.42;;;0.85;;
52294;SDS011;38243;53.212;6.574;2023-04-03T06:40:34;2.42;;;0.73;;
52294;SDS011;38243;53.212;6.574;2023-04-03T06:43:01;2.70;;;0.90;;
52294;SDS011;38243;53.212;6.574;2023-04-03T06:45:27;3.20;;;1.00;;
52294;SDS011;38243;53.212;6.574;2023-04-03T06:47:53;2.95;;;0.80;;
52294;SDS011;38243;53.212;6.574;2023-04-03T06:50:19;3.70;;;1.10;;
52294;SDS011;38243;53.212;6.574;2023-04-03T06:52:45;2.67;;;1.00;;
52294;SDS011;38243;53.212;6.574;2023-04-03T06:55:11;2.20;;;0.90;;
52294;SDS011;38243;53.212;6.574;2023-04-03T06:57:36;1.73;;;0.97;;
52294;SDS011;38243;53.212;6.574;2023-04-03T07:00:03;2.45;;;0.90;;
52294;SDS011;38243;53.212;6.574;2023-04-03T07:02:30;3.90;;;1.13;;
52294;SDS011;38243;53.212;6.574;2023-04-03T07:04:56;2.28;;;1.10;;
52294;SDS011;38243;53.212;6.574;2023-04-03T07:07:22;3.37;;;1.13;;
52294;SDS011;38243;53.212;6.574;2023-04-03T07:09:48;1.77;;;0.80;;
52294;SDS011;38243;53.212;6.574;2023-04-03T07:12:14;2.38;;;1.08;;
52294;SDS011;38243;53.212;6.574;2023-04-03T07:14:41;2.45;;;1.00;;
52294;SDS011;38243;53.212;6.574;2023-04-03T07:17:06;2.80;;;1.00;;
52294;SDS011;38243;53.212;6.574;2023-04-03T07:19:32;3.20;;;1.30;;
52294;SDS011;38243;53.212;6.574;2023-04-03T07:21:58;2.40;;;0.90;;
52294;SDS011;38243;53.212;6.574;2023-04-03T07:24:23;3.55;;;1.50;;
52294;SDS011;38243;53.212;6.574;2023-04-03T07:26:50;2.83;;;1.10;;
52294;SDS011;38243;53.212;6.574;2023-04-03T07:29:16;2.95;;;1.05;;
52294;SDS011;38243;53.212;6.574;2023-04-03T07:31:42;2.13;;;0.90;;
52294;SDS011;38243;53.212;6.574;2023-04-03T07:34:08;2.72;;;1.17;;
52294;SDS011;38243;53.212;6.574;2023-04-03T07:36:34;1.92;;;0.80;;
52294;SDS011;38243;53.212;6.574;2023-04-03T07:39:01;2.28;;;0.95;;
52294;SDS011;38243;53.212;6.574;2023-04-03T07:41:27;3.73;;;1.10;;
52294;SDS011;38243;53.212;6.574;2023-04-03T07:43:53;1.92;;;0.90;;
52294;SDS011;38243;53.212;6.574;2023-04-03T07:46:21;2.08;;;0.90;;
52294;SDS011;38243;53.212;6.574;2023-04-03T07:48:47;2.40;;;1.00;;
52294;SDS011;38243;53.212;6.574;2023-04-03T07:51:13;2.40;;;1.10;;
52294;SDS011;38243;53.212;6.574;2023-04-03T07:53:39;2.25;;;0.90;;
52294;SDS011;38243;53.212;6.574;2023-04-03T07:56:05;1.90;;;0.90;;
52294;SDS011;38243;53.212;6.574;2023-04-03T07:58:32;2.80;;;0.77;;
52294;SDS011;38243;53.212;6.574;2023-04-03T08:00:58;2.20;;;1.02;;
52294;SDS011;38243;53.212;6.574;2023-04-03T08:03:24;3.38;;;0.88;;
52294;SDS011;38243;53.212;6.574;2023-04-03T08:05:50;1.23;;;0.70;;
52294;SDS011;38243;53.212;6.574;2023-04-03T08:08:17;2.67;;;0.80;;
52294;SDS011;38243;53.212;6.574;2023-04-03T08:10:52;1.92;;;0.90;;
52294;SDS011;38243;53.212;6.574;2023-04-03T08:13:22;3.05;;;0.90;;
52294;SDS011;38243;53.212;6.574;2023-04-03T08:15:48;2.00;;;0.70;;
52294;SDS011;38243;53.212;6.574;2023-04-03T08:18:15;2.10;;;0.90;;
52294;SDS011;38243;53.212;6.574;2023-04-03T08:20:41;1.73;;;0.90;;
52294;SDS011;38243;53.212;6.574;2023-04-03T08:23:07;2.27;;;0.87;;
52294;SDS011;38243;53.212;6.574;2023-04-03T08:25:34;2.63;;;0.75;;
52294;SDS011;38243;53.212;6.574;2023-04-03T08:28:03;2.15;;;0.80;;
52294;SDS011;38243;53.212;6.574;2023-04-03T08:30:29;1.95;;;0.77;;
52294;SDS011;38243;53.212;6.574;2023-04-03T08:32:55;2.33;;;0.70;;
52294;SDS011;38243;53.212;6.574;2023-04-03T08:35:21;1.65;;;0.80;;
52294;SDS011;38243;53.212;6.574;2023-04-03T08:37:46;1.80;;;0.83;;
52294;SDS011;38243;53.212;6.574;2023-04-03T08:40:16;1.75;;;0.60;;
52294;SDS011;38243;53.212;6.574;2023-04-03T08:45:18;2.65;;;0.82;;
52294;SDS011;38243;53.212;6.574;2023-04-03T08:48:12;2.00;;;0.73;;
52294;SDS011;38243;53.212;6.574;2023-04-03T08:50:47;2.87;;;0.60;;
52294;SDS011;38243;53.212;6.574;2023-04-03T08:53:25;2.33;;;0.75;;
52294;SDS011;38243;53.212;6.574;2023-04-03T08:55:56;2.50;;;0.57;;
52294;SDS011;38243;53.212;6.574;2023-04-03T08:58:24;1.70;;;0.70;;
52294;SDS011;38243;53.212;6.574;2023-04-03T09:00:59;1.55;;;0.70;;
52294;SDS011;38243;53.212;6.574;2023-04-03T09:03:28;1.77;;;0.88;;
52294;SDS011;38243;53.212;6.574;2023-04-03T09:08:45;1.20;;;0.80;;
52294;SDS011;38243;53.212;6.574;2023-04-03T09:11:24;2.17;;;0.80;;
52294;SDS011;38243;53.212;6.574;2023-04-03T09:16:59;2.33;;;0.90;;
52294;SDS011;38243;53.212;6.574;2023-04-03T09:19:56;1.88;;;0.70;;
52294;SDS011;38243;53.212;6.574;2023-04-03T09:22:27;1.33;;;0.60;;
52294;SDS011;38243;53.212;6.574;2023-04-03T09:27:30;2.07;;;0.60;;
52294;SDS011;38243;53.212;6.574;2023-04-03T09:29:56;2.35;;;0.90;;
52294;SDS011;38243;53.212;6.574;2023-04-03T09:35:04;2.53;;;0.82;;
52294;SDS011;38243;53.212;6.574;2023-04-03T09:37:53;1.27;;;0.60;;
52294;SDS011;38243;53.212;6.574;2023-04-03T09:42:52;3.30;;;0.70;;
52294;SDS011;38243;53.212;6.574;2023-04-03T09:45:23;1.92;;;0.70;;
52294;SDS011;38243;53.212;6.574;2023-04-03T09:50:40;2.40;;;0.70;;
52294;SDS011;38243;53.212;6.574;2023-04-03T09:53:42;1.95;;;0.80;;
52294;SDS011;38243;53.212;6.574;2023-04-03T09:58:41;2.15;;;0.60;;
52294;SDS011;38243;53.212;6.574;2023-04-03T10:01:57;1.90;;;0.60;;
52294;SDS011;38243;53.212;6.574;2023-04-03T10:06:41;3.75;;;0.90;;
52294;SDS011;38243;53.212;6.574;2023-04-03T10:09:22;1.02;;;0.60;;
52294;SDS011;38243;53.212;6.574;2023-04-03T10:12:00;1.20;;;0.50;;
52294;SDS011;38243;53.212;6.574;2023-04-03T10:14:30;1.67;;;0.70;;
52294;SDS011;38243;53.212;6.574;2023-04-03T10:17:14;1.88;;;0.73;;
52294;SDS011;38243;53.212;6.574;2023-04-03T10:19:53;1.88;;;0.65;;
52294;SDS011;38243;53.212;6.574;2023-04-03T10:27:37;1.35;;;0.50;;
52294;SDS011;38243;53.212;6.574;2023-04-03T10:33:01;2.30;;;0.60;;
52294;SDS011;38243;53.212;6.574;2023-04-03T10:36:01;1.40;;;0.53;;
52294;SDS011;38243;53.212;6.574;2023-04-03T10:41:41;1.07;;;0.37;;
52294;SDS011;38243;53.212;6.574;2023-04-03T10:47:24;1.25;;;0.52;;
52294;SDS011;38243;53.212;6.574;2023-04-03T10:50:27;1.87;;;0.40;;
52294;SDS011;38243;53.212;6.574;2023-04-03T10:55:53;1.20;;;0.50;;
52294;SDS011;38243;53.212;6.574;2023-04-03T10:58:32;1.70;;;0.60;;
52294;SDS011;38243;53.212;6.574;2023-04-03T11:01:06;2.88;;;0.50;;
52294;SDS011;38243;53.212;6.574;2023-04-03T11:03:36;1.30;;;0.50;;
52294;SDS011;38243;53.212;6.574;2023-04-03T11:06:07;1.10;;;0.35;;
52294;SDS011;38243;53.212;6.574;2023-04-03T11:08:53;1.55;;;0.60;;
52294;SDS011;38243;53.212;6.574;2023-04-03T11:11:32;0.60;;;0.30;;
52294;SDS011;38243;53.212;6.574;2023-04-03T11:17:35;2.00;;;0.57;;
52294;SDS011;38243;53.212;6.574;2023-04-03T11:23:05;1.00;;;0.30;;
52294;SDS011;38243;53.212;6.574;2023-04-03T11:25:40;3.22;;;0.77;;
52294;SDS011;38243;53.212;6.574;2023-04-03T11:28:14;1.08;;;0.40;;
52294;SDS011;38243;53.212;6.574;2023-04-03T11:30:49;0.68;;;0.30;;
52294;SDS011;38243;53.212;6.574;2023-04-03T11:36:27;1.20;;;0.50;;
52294;SDS011;38243;53.212;6.574;2023-04-03T11:39:04;0.82;;;0.40;;
52294;SDS011;38243;53.212;6.574;2023-04-03T11:41:45;1.08;;;0.50;;
52294;SDS011;38243;53.212;6.574;2023-04-03T11:44:32;1.40;;;0.50;;
52294;SDS011;38243;53.212;6.574;2023-04-03T11:47:07;1.08;;;0.43;;
52294;SDS011;38243;53.212;6.574;2023-04-03T12:13:40;1.87;;;0.60;;
52294;SDS011;38243;53.212;6.574;2023-04-03T12:16:06;0.63;;;0.40;;
52294;SDS011;38243;53.212;6.574;2023-04-03T12:21:19;0.75;;;0.35;;
52294;SDS011;38243;53.212;6.574;2023-04-03T12:26:32;1.38;;;0.50;;
52294;SDS011;38243;53.212;6.574;2023-04-03T12:37:35;1.20;;;0.30;;
52294;SDS011;38243;53.212;6.574;2023-04-03T12:42:56;0.90;;;0.40;;
52294;SDS011;38243;53.212;6.574;2023-04-03T12:45:43;1.40;;;0.50;;
52294;SDS011;38243;53.212;6.574;2023-04-03T12:48:17;1.77;;;0.30;;
52294;SDS011;38243;53.212;6.574;2023-04-03T12:50:47;0.80;;;0.30;;
52294;SDS011;38243;53.212;6.574;2023-04-03T12:53:16;1.48;;;0.40;;
52294;SDS011;38243;53.212;6.574;2023-04-03T12:55:53;0.98;;;0.40;;
52294;SDS011;38243;53.212;6.574;2023-04-03T12:58:21;1.20;;;0.30;;
52294;SDS011;38243;53.212;6.574;2023-04-03T13:03:36;1.20;;;0.30;;
52294;SDS011;38243;53.212;6.574;2023-04-03T13:06:06;0.75;;;0.35;;
52294;SDS011;38243;53.212;6.574;2023-04-03T13:08:32;0.40;;;0.20;;
52294;SDS011;38243;53.212;6.574;2023-04-03T13:10:59;0.95;;;0.28;;
52294;SDS011;38243;53.212;6.574;2023-04-03T13:13:28;1.10;;;0.30;;
52294;SDS011;38243;53.212;6.574;2023-04-03T13:15:54;1.58;;;0.47;;
52294;SDS011;38243;53.212;6.574;2023-04-03T13:18:21;1.30;;;0.40;;
52294;SDS011;38243;53.212;6.574;2023-04-03T13:20:47;0.80;;;0.30;;
52294;SDS011;38243;53.212;6.574;2023-04-03T13:23:14;0.85;;;0.30;;
52294;SDS011;38243;53.212;6.574;2023-04-03T13:25:45;1.70;;;0.40;;
52294;SDS011;38243;53.212;6.574;2023-04-03T13:28:13;0.75;;;0.35;;
52294;SDS011;38243;53.212;6.574;2023-04-03T13:31:05;0.63;;;0.30;;
52294;SDS011;38243;53.212;6.574;2023-04-03T13:33:29;1.30;;;0.30;;
52294;SDS011;38243;53.212;6.574;2023-04-03T13:36:04;1.40;;;0.40;;
52294;SDS011;38243;53.212;6.574;2023-04-03T13:38:45;1.15;;;0.40;;
52294;SDS011;38243;53.212;6.574;2023-04-03T13:41:31;0.67;;;0.30;;
52294;SDS011;38243;53.212;6.574;2023-04-03T13:46:52;0.80;;;0.40;;
52294;SDS011;38243;53.212;6.574;2023-04-03T13:51:59;0.80;;;0.30;;
52294;SDS011;38243;53.212;6.574;2023-04-03T13:54:29;1.00;;;0.40;;
52294;SDS011;38243;53.212;6.574;2023-04-03T13:56:59;0.85;;;0.50;;
52294;SDS011;38243;53.212;6.574;2023-04-03T13:59:30;0.50;;;0.30;;
52294;SDS011;38243;53.212;6.574;2023-04-03T14:04:32;2.13;;;0.33;;
52294;SDS011;38243;53.212;6.574;2023-04-03T14:07:21;0.90;;;0.28;;
52294;SDS011;38243;53.212;6.574;2023-04-03T14:09:49;0.73;;;0.40;;
52294;SDS011;38243;53.212;6.574;2023-04-03T14:12:23;0.82;;;0.38;;
52294;SDS011;38243;53.212;6.574;2023-04-03T14:14:52;2.00;;;0.50;;
52294;SDS011;38243;53.212;6.574;2023-04-03T14:17:20;0.90;;;0.40;;
52294;SDS011;38243;53.212;6.574;2023-04-03T14:19:48;0.47;;;0.22;;
52294;SDS011;38243;53.212;6.574;2023-04-03T14:22:24;1.60;;;0.40;;
52294;SDS011;38243;53.212;6.574;2023-04-03T14:24:56;0.85;;;0.30;;
52294;SDS011;38243;53.212;6.574;2023-04-03T14:27:24;1.13;;;0.40;;
52294;SDS011;38243;53.212;6.574;2023-04-03T14:29:53;0.80;;;0.30;;
52294;SDS011;38243;53.212;6.574;2023-04-03T14:32:20;0.95;;;0.35;;
52294;SDS011;38243;53.212;6.574;2023-04-03T14:34:47;0.80;;;0.32;;
52294;SDS011;38243;53.212;6.574;2023-04-03T14:37:16;1.67;;;0.50;;
52294;SDS011;38243;53.212;6.574;2023-04-03T14:39:43;0.88;;;0.40;;
52294;SDS011;38243;53.212;6.574;2023-04-03T14:42:14;1.08;;;0.50;;
52294;SDS011;38243;53.212;6.574;2023-04-03T14:44:45;0.88;;;0.40;;
52294;SDS011;38243;53.212;6.574;2023-04-03T14:47:12;0.55;;;0.30;;
52294;SDS011;38243;53.212;6.574;2023-04-03T14:49:39;1.10;;;0.40;;
52294;SDS011;38243;53.212;6.574;2023-04-03T14:52:05;1.20;;;0.40;;
52294;SDS011;38243;53.212;6.574;2023-04-03T14:54:31;1.20;;;0.20;;
52294;SDS011;38243;53.212;6.574;2023-04-03T14:56:57;0.80;;;0.40;;
52294;SDS011;38243;53.212;6.574;2023-04-03T14:59:30;1.10;;;0.50;;
52294;SDS011;38243;53.212;6.574;2023-04-03T15:01:57;0.70;;;0.40;;
52294;SDS011;38243;53.212;6.574;2023-04-03T15:04:23;0.80;;;0.32;;
52294;SDS011;38243;53.212;6.574;2023-04-03T15:06:50;0.93;;;0.40;;
52294;SDS011;38243;53.212;6.574;2023-04-03T15:09:21;0.52;;;0.30;;
52294;SDS011;38243;53.212;6.574;2023-04-03T15:11:52;0.90;;;0.40;;
52294;SDS011;38243;53.212;6.574;2023-04-03T15:14:19;0.57;;;0.30;;
52294;SDS011;38243;53.212;6.574;2023-04-03T15:16:45;0.60;;;0.30;;
52294;SDS011;38243;53.212;6.574;2023-04-03T15:19:11;0.50;;;0.30;;
52294;SDS011;38243;53.212;6.574;2023-04-03T15:21:37;0.75;;;0.50;;
52294;SDS011;38243;53.212;6.574;2023-04-03T15:24:04;0.55;;;0.30;;
52294;SDS011;38243;53.212;6.574;2023-04-03T15:26:30;0.80;;;0.40;;
52294;SDS011;38243;53.212;6.574;2023-04-03T15:28:56;0.90;;;0.50;;
52294;SDS011;38243;53.212;6.574;2023-04-03T15:31:22;0.80;;;0.40;;
52294;SDS011;38243;53.212;6.574;2023-04-03T15:33:48;1.00;;;0.40;;
52294;SDS011;38243;53.212;6.574;2023-04-03T15:36:13;1.40;;;0.40;;
52294;SDS011;38243;53.212;6.574;2023-04-03T15:38:39;1.00;;;0.32;;
52294;SDS011;38243;53.212;6.574;2023-04-03T15:41:05;0.70;;;0.23;;
52294;SDS011;38243;53.212;6.574;2023-04-03T15:43:31;0.88;;;0.40;;
52294;SDS011;38243;53.212;6.574;2023-04-03T15:45:58;1.00;;;0.30;;
52294;SDS011;38243;53.212;6.574;2023-04-03T15:48:25;1.10;;;0.50;;
52294;SDS011;38243;53.212;6.574;2023-04-03T15:50:52;1.63;;;0.55;;
52294;SDS011;38243;53.212;6.574;2023-04-03T15:53:21;0.90;;;0.40;;
52294;SDS011;38243;53.212;6.574;2023-04-03T15:55:47;1.20;;;0.30;;
52294;SDS011;38243;53.212;6.574;2023-04-03T15:58:13;0.80;;;0.40;;
52294;SDS011;38243;53.212;6.574;2023-04-03T16:00:39;1.00;;;0.40;;
52294;SDS011;38243;53.212;6.574;2023-04-03T16:03:07;1.38;;;0.40;;
52294;SDS011;38243;53.212;6.574;2023-04-03T16:05:35;0.95;;;0.47;;
52294;SDS011;38243;53.212;6.574;2023-04-03T16:08:03;0.75;;;0.30;;
52294;SDS011;38243;53.212;6.574;2023-04-03T16:10:30;0.77;;;0.40;;
52294;SDS011;38243;53.212;6.574;2023-04-03T16:12:56;1.13;;;0.52;;
52294;SDS011;38243;53.212;6.574;2023-04-03T16:15:22;1.63;;;0.60;;
52294;SDS011;38243;53.212;6.574;2023-04-03T16:17:49;0.90;;;0.50;;
52294;SDS011;38243;53.212;6.574;2023-04-03T16:20:15;1.05;;;0.40;;
52294;SDS011;38243;53.212;6.574;2023-04-03T16:22:41;0.70;;;0.38;;
52294;SDS011;38243;53.212;6.574;2023-04-03T16:25:08;0.77;;;0.43;;
52294;SDS011;38243;53.212;6.574;2023-04-03T16:27:34;0.95;;;0.40;;
52294;SDS011;38243;53.212;6.574;2023-04-03T16:30:00;0.90;;;0.60;;
52294;SDS011;38243;53.212;6.574;2023-04-03T16:32:26;1.73;;;0.40;;
52294;SDS011;38243;53.212;6.574;2023-04-03T16:34:54;0.90;;;0.32;;
52294;SDS011;38243;53.212;6.574;2023-04-03T16:37:21;1.00;;;0.40;;
52294;SDS011;38243;53.212;6.574;2023-04-03T16:39:46;1.55;;;0.40;;
52294;SDS011;38243;53.212;6.574;2023-04-03T16:42:12;1.00;;;0.40;;
52294;SDS011;38243;53.212;6.574;2023-04-03T16:44:38;1.13;;;0.40;;
52294;SDS011;38243;53.212;6.574;2023-04-03T16:47:05;1.03;;;0.40;;
52294;SDS011;38243;53.212;6.574;2023-04-03T16:49:32;1.92;;;0.30;;